Dixon, South Dakota
Current Conditions -  °F | °C
As of 9:53 PM on Thursday 18 Dec 2014 (Local Time) from KICR Reporting Station
Haze Haze  
Wind Chill: 17°   Ceiling: Unl
Heat Index: 25°   Visibility: 6mi
Dew Point: 22°   Wind: 7mph
Humidity: 88%   Direction: 180°S
Pressure: 30.07"   Gusts: NA
Location:  43.2419°N, 99.4287°W
Report Text: KICR 190353Z AUTO 18006KT 6SM BR FEW003 M04/M06 A3007 RMK AO2 SLP210 I1000 T10391056
Loading
Personal Weather Stations






























Interactive Weather Map New forecast layout! Learn more

10-Day Weather Forecast

Advertisements
Track Severe Weather on mobile